sensor_id;sensor_type;location;lat;lon;timestamp;P1;durP1;ratioP1;P2;durP2;ratioP2
54157;SDS011;40065;49.894;10.358;2024-02-15T00:03:23;11.00;;;7.22;;
54157;SDS011;40065;49.894;10.358;2024-02-15T00:08:42;18.33;;;9.23;;
54157;SDS011;40065;49.894;10.358;2024-02-15T00:13:45;16.20;;;8.37;;
54157;SDS011;40065;49.894;10.358;2024-02-15T00:18:47;15.45;;;9.43;;
54157;SDS011;40065;49.894;10.358;2024-02-15T00:23:51;15.27;;;9.83;;
54157;SDS011;40065;49.894;10.358;2024-02-15T00:28:55;16.35;;;10.32;;
54157;SDS011;40065;49.894;10.358;2024-02-15T00:33:57;19.60;;;10.23;;
54157;SDS011;40065;49.894;10.358;2024-02-15T00:39:01;19.90;;;10.68;;
54157;SDS011;40065;49.894;10.358;2024-02-15T00:44:05;17.00;;;10.35;;
54157;SDS011;40065;49.894;10.358;2024-02-15T00:49:07;15.98;;;10.02;;
54157;SDS011;40065;49.894;10.358;2024-02-15T00:54:09;19.67;;;11.90;;
54157;SDS011;40065;49.894;10.358;2024-02-15T00:59:11;16.08;;;10.00;;
54157;SDS011;40065;49.894;10.358;2024-02-15T01:04:13;18.77;;;11.68;;
54157;SDS011;40065;49.894;10.358;2024-02-15T01:09:15;19.83;;;11.98;;
54157;SDS011;40065;49.894;10.358;2024-02-15T01:14:17;21.88;;;11.70;;
54157;SDS011;40065;49.894;10.358;2024-02-15T01:19:19;20.33;;;12.77;;
54157;SDS011;40065;49.894;10.358;2024-02-15T01:24:21;21.13;;;12.60;;
54157;SDS011;40065;49.894;10.358;2024-02-15T01:29:23;20.70;;;12.10;;
54157;SDS011;40065;49.894;10.358;2024-02-15T01:34:26;20.17;;;12.10;;
54157;SDS011;40065;49.894;10.358;2024-02-15T01:39:29;18.85;;;12.25;;
54157;SDS011;40065;49.894;10.358;2024-02-15T01:44:31;17.35;;;11.57;;
54157;SDS011;40065;49.894;10.358;2024-02-15T01:49:33;17.25;;;10.90;;
54157;SDS011;40065;49.894;10.358;2024-02-15T01:54:35;18.90;;;11.10;;
54157;SDS011;40065;49.894;10.358;2024-02-15T01:59:40;20.35;;;11.68;;
54157;SDS011;40065;49.894;10.358;2024-02-15T02:04:43;17.13;;;11.45;;
54157;SDS011;40065;49.894;10.358;2024-02-15T02:09:46;19.02;;;10.43;;
54157;SDS011;40065;49.894;10.358;2024-02-15T02:14:48;21.85;;;11.63;;
54157;SDS011;40065;49.894;10.358;2024-02-15T02:19:51;19.55;;;11.13;;
54157;SDS011;40065;49.894;10.358;2024-02-15T02:25:05;16.23;;;11.00;;
54157;SDS011;40065;49.894;10.358;2024-02-15T02:30:16;19.48;;;11.70;;
54157;SDS011;40065;49.894;10.358;2024-02-15T02:35:20;16.77;;;10.48;;
54157;SDS011;40065;49.894;10.358;2024-02-15T02:40:22;19.13;;;10.90;;
54157;SDS011;40065;49.894;10.358;2024-02-15T02:45:24;15.80;;;10.65;;
54157;SDS011;40065;49.894;10.358;2024-02-15T02:50:26;17.85;;;9.70;;
54157;SDS011;40065;49.894;10.358;2024-02-15T02:55:28;17.85;;;9.73;;
54157;SDS011;40065;49.894;10.358;2024-02-15T03:00:30;14.75;;;9.25;;
54157;SDS011;40065;49.894;10.358;2024-02-15T03:05:33;14.80;;;9.35;;
54157;SDS011;40065;49.894;10.358;2024-02-15T03:10:35;16.45;;;9.55;;
54157;SDS011;40065;49.894;10.358;2024-02-15T03:15:37;15.23;;;9.50;;
54157;SDS011;40065;49.894;10.358;2024-02-15T03:20:39;15.88;;;8.48;;
54157;SDS011;40065;49.894;10.358;2024-02-15T03:25:41;15.88;;;8.90;;
54157;SDS011;40065;49.894;10.358;2024-02-15T03:30:42;17.05;;;8.15;;
54157;SDS011;40065;49.894;10.358;2024-02-15T03:35:44;15.43;;;8.18;;
54157;SDS011;40065;49.894;10.358;2024-02-15T03:40:46;15.40;;;9.38;;
54157;SDS011;40065;49.894;10.358;2024-02-15T03:45:48;16.20;;;10.20;;
54157;SDS011;40065;49.894;10.358;2024-02-15T03:50:50;16.67;;;10.77;;
54157;SDS011;40065;49.894;10.358;2024-02-15T03:55:52;18.63;;;9.50;;
54157;SDS011;40065;49.894;10.358;2024-02-15T04:00:54;15.60;;;9.10;;
54157;SDS011;40065;49.894;10.358;2024-02-15T04:05:58;16.13;;;9.50;;
54157;SDS011;40065;49.894;10.358;2024-02-15T04:11:01;16.67;;;9.50;;
54157;SDS011;40065;49.894;10.358;2024-02-15T04:16:03;18.98;;;9.50;;
54157;SDS011;40065;49.894;10.358;2024-02-15T04:21:06;13.45;;;8.98;;
54157;SDS011;40065;49.894;10.358;2024-02-15T04:26:09;13.75;;;8.98;;
54157;SDS011;40065;49.894;10.358;2024-02-15T04:31:10;19.60;;;9.80;;
54157;SDS011;40065;49.894;10.358;2024-02-15T04:36:13;22.85;;;11.02;;
54157;SDS011;40065;49.894;10.358;2024-02-15T04:41:19;18.63;;;10.98;;
54157;SDS011;40065;49.894;10.358;2024-02-15T04:46:24;17.02;;;9.32;;
54157;SDS011;40065;49.894;10.358;2024-02-15T04:51:26;27.08;;;11.55;;
54157;SDS011;40065;49.894;10.358;2024-02-15T04:56:28;23.25;;;12.40;;
54157;SDS011;40065;49.894;10.358;2024-02-15T05:01:33;27.13;;;13.70;;
54157;SDS011;40065;49.894;10.358;2024-02-15T05:06:35;23.95;;;12.95;;
54157;SDS011;40065;49.894;10.358;2024-02-15T05:11:38;18.77;;;11.10;;
54157;SDS011;40065;49.894;10.358;2024-02-15T05:16:43;19.23;;;10.20;;
54157;SDS011;40065;49.894;10.358;2024-02-15T05:21:45;15.43;;;9.27;;
54157;SDS011;40065;49.894;10.358;2024-02-15T05:26:47;20.05;;;9.68;;
54157;SDS011;40065;49.894;10.358;2024-02-15T05:31:52;19.13;;;9.27;;
54157;SDS011;40065;49.894;10.358;2024-02-15T05:36:55;22.98;;;9.10;;
54157;SDS011;40065;49.894;10.358;2024-02-15T05:41:57;19.67;;;9.00;;
54157;SDS011;40065;49.894;10.358;2024-02-15T05:47:02;22.15;;;9.02;;
54157;SDS011;40065;49.894;10.358;2024-02-15T05:52:05;15.13;;;8.30;;
54157;SDS011;40065;49.894;10.358;2024-02-15T05:57:07;15.15;;;8.05;;
54157;SDS011;40065;49.894;10.358;2024-02-15T06:02:09;11.10;;;6.80;;
54157;SDS011;40065;49.894;10.358;2024-02-15T06:07:10;12.93;;;8.00;;
54157;SDS011;40065;49.894;10.358;2024-02-15T06:12:13;18.25;;;7.80;;
54157;SDS011;40065;49.894;10.358;2024-02-15T06:17:14;10.95;;;7.15;;
54157;SDS011;40065;49.894;10.358;2024-02-15T06:22:16;14.10;;;7.60;;
54157;SDS011;40065;49.894;10.358;2024-02-15T06:27:18;11.30;;;6.60;;
54157;SDS011;40065;49.894;10.358;2024-02-15T06:32:20;12.20;;;7.00;;
54157;SDS011;40065;49.894;10.358;2024-02-15T06:37:41;11.85;;;6.95;;
54157;SDS011;40065;49.894;10.358;2024-02-15T06:43:01;10.73;;;6.78;;
54157;SDS011;40065;49.894;10.358;2024-02-15T06:48:04;12.63;;;7.00;;
54157;SDS011;40065;49.894;10.358;2024-02-15T06:53:09;11.90;;;6.50;;
54157;SDS011;40065;49.894;10.358;2024-02-15T06:58:11;13.52;;;6.82;;
54157;SDS011;40065;49.894;10.358;2024-02-15T07:03:15;11.20;;;6.40;;
54157;SDS011;40065;49.894;10.358;2024-02-15T07:08:18;12.43;;;5.80;;
54157;SDS011;40065;49.894;10.358;2024-02-15T07:13:20;14.18;;;5.82;;
54157;SDS011;40065;49.894;10.358;2024-02-15T07:18:21;9.32;;;4.63;;
54157;SDS011;40065;49.894;10.358;2024-02-15T07:23:29;8.00;;;4.78;;
54157;SDS011;40065;49.894;10.358;2024-02-15T07:28:31;11.48;;;3.97;;
54157;SDS011;40065;49.894;10.358;2024-02-15T07:33:33;11.40;;;4.30;;
54157;SDS011;40065;49.894;10.358;2024-02-15T07:38:36;9.75;;;4.38;;
54157;SDS011;40065;49.894;10.358;2024-02-15T07:43:38;9.60;;;3.50;;
54157;SDS011;40065;49.894;10.358;2024-02-15T07:48:45;7.13;;;3.67;;
54157;SDS011;40065;49.894;10.358;2024-02-15T07:53:48;7.35;;;3.53;;
54157;SDS011;40065;49.894;10.358;2024-02-15T07:58:51;8.82;;;4.13;;
54157;SDS011;40065;49.894;10.358;2024-02-15T08:03:54;5.75;;;3.67;;
54157;SDS011;40065;49.894;10.358;2024-02-15T08:08:57;9.30;;;3.92;;
54157;SDS011;40065;49.894;10.358;2024-02-15T08:13:59;6.70;;;3.00;;
54157;SDS011;40065;49.894;10.358;2024-02-15T08:19:01;6.70;;;3.08;;
54157;SDS011;40065;49.894;10.358;2024-02-15T08:24:04;5.37;;;2.30;;
54157;SDS011;40065;49.894;10.358;2024-02-15T08:29:10;5.85;;;2.33;;
54157;SDS011;40065;49.894;10.358;2024-02-15T08:34:13;6.03;;;2.22;;
54157;SDS011;40065;49.894;10.358;2024-02-15T08:39:16;6.57;;;2.20;;
54157;SDS011;40065;49.894;10.358;2024-02-15T08:44:18;5.55;;;1.90;;
54157;SDS011;40065;49.894;10.358;2024-02-15T08:49:22;4.95;;;2.17;;
54157;SDS011;40065;49.894;10.358;2024-02-15T08:54:24;3.30;;;1.70;;
54157;SDS011;40065;49.894;10.358;2024-02-15T08:59:28;7.28;;;2.05;;
54157;SDS011;40065;49.894;10.358;2024-02-15T09:04:30;5.25;;;1.90;;
54157;SDS011;40065;49.894;10.358;2024-02-15T09:09:31;5.10;;;1.65;;
54157;SDS011;40065;49.894;10.358;2024-02-15T09:14:34;9.20;;;2.20;;
54157;SDS011;40065;49.894;10.358;2024-02-15T09:19:40;4.75;;;2.10;;
54157;SDS011;40065;49.894;10.358;2024-02-15T09:24:43;4.10;;;1.85;;
54157;SDS011;40065;49.894;10.358;2024-02-15T09:29:44;5.30;;;1.80;;
54157;SDS011;40065;49.894;10.358;2024-02-15T09:34:47;4.55;;;1.58;;
54157;SDS011;40065;49.894;10.358;2024-02-15T09:39:48;5.13;;;1.80;;
54157;SDS011;40065;49.894;10.358;2024-02-15T09:44:50;7.63;;;2.20;;
54157;SDS011;40065;49.894;10.358;2024-02-15T09:49:53;5.28;;;1.80;;
54157;SDS011;40065;49.894;10.358;2024-02-15T09:54:54;3.78;;;1.45;;
54157;SDS011;40065;49.894;10.358;2024-02-15T09:59:56;5.30;;;1.67;;
54157;SDS011;40065;49.894;10.358;2024-02-15T10:04:59;5.30;;;1.58;;
54157;SDS011;40065;49.894;10.358;2024-02-15T10:10:13;3.58;;;1.40;;
54157;SDS011;40065;49.894;10.358;2024-02-15T10:15:30;6.32;;;1.35;;
54157;SDS011;40065;49.894;10.358;2024-02-15T10:20:38;4.72;;;1.50;;
54157;SDS011;40065;49.894;10.358;2024-02-15T10:25:41;4.10;;;1.48;;
54157;SDS011;40065;49.894;10.358;2024-02-15T10:30:43;8.95;;;1.67;;
54157;SDS011;40065;49.894;10.358;2024-02-15T10:35:47;5.13;;;1.48;;
54157;SDS011;40065;49.894;10.358;2024-02-15T10:40:49;3.83;;;1.33;;
54157;SDS011;40065;49.894;10.358;2024-02-15T10:45:51;5.50;;;1.27;;
54157;SDS011;40065;49.894;10.358;2024-02-15T10:50:55;5.90;;;1.40;;
54157;SDS011;40065;49.894;10.358;2024-02-15T10:56:15;3.47;;;1.02;;
54157;SDS011;40065;49.894;10.358;2024-02-15T11:01:21;3.95;;;1.20;;
54157;SDS011;40065;49.894;10.358;2024-02-15T11:06:27;7.57;;;1.35;;
54157;SDS011;40065;49.894;10.358;2024-02-15T11:11:31;2.60;;;1.08;;
54157;SDS011;40065;49.894;10.358;2024-02-15T11:16:41;4.63;;;1.40;;
54157;SDS011;40065;49.894;10.358;2024-02-15T11:21:53;5.50;;;1.33;;
54157;SDS011;40065;49.894;10.358;2024-02-15T11:26:58;4.45;;;1.08;;
54157;SDS011;40065;49.894;10.358;2024-02-15T11:32:10;3.90;;;1.25;;
54157;SDS011;40065;49.894;10.358;2024-02-15T11:37:49;3.53;;;1.30;;
54157;SDS011;40065;49.894;10.358;2024-02-15T11:48:02;4.70;;;1.42;;
54157;SDS011;40065;49.894;10.358;2024-02-15T11:53:05;5.05;;;1.27;;
54157;SDS011;40065;49.894;10.358;2024-02-15T11:58:13;3.75;;;1.30;;
54157;SDS011;40065;49.894;10.358;2024-02-15T12:03:30;6.32;;;1.17;;
54157;SDS011;40065;49.894;10.358;2024-02-15T12:09:08;4.80;;;1.30;;
54157;SDS011;40065;49.894;10.358;2024-02-15T12:14:29;3.72;;;1.25;;
54157;SDS011;40065;49.894;10.358;2024-02-15T12:19:51;5.40;;;1.80;;
54157;SDS011;40065;49.894;10.358;2024-02-15T12:25:00;4.90;;;0.90;;
54157;SDS011;40065;49.894;10.358;2024-02-15T12:30:07;4.30;;;1.10;;
54157;SDS011;40065;49.894;10.358;2024-02-15T12:35:22;5.82;;;2.63;;
54157;SDS011;40065;49.894;10.358;2024-02-15T12:40:32;3.83;;;1.08;;
54157;SDS011;40065;49.894;10.358;2024-02-15T12:45:36;7.05;;;1.55;;
54157;SDS011;40065;49.894;10.358;2024-02-15T12:50:42;3.33;;;1.15;;
54157;SDS011;40065;49.894;10.358;2024-02-15T12:55:45;3.22;;;1.10;;
54157;SDS011;40065;49.894;10.358;2024-02-15T13:00:55;3.92;;;1.00;;
54157;SDS011;40065;49.894;10.358;2024-02-15T13:06:00;4.78;;;1.02;;
54157;SDS011;40065;49.894;10.358;2024-02-15T13:11:03;4.22;;;0.90;;
54157;SDS011;40065;49.894;10.358;2024-02-15T13:16:05;2.97;;;1.03;;
54157;SDS011;40065;49.894;10.358;2024-02-15T13:21:08;4.78;;;1.00;;
54157;SDS011;40065;49.894;10.358;2024-02-15T13:26:11;3.58;;;1.25;;
54157;SDS011;40065;49.894;10.358;2024-02-15T13:31:14;2.75;;;1.00;;
54157;SDS011;40065;49.894;10.358;2024-02-15T13:36:17;4.40;;;1.23;;
54157;SDS011;40065;49.894;10.358;2024-02-15T13:41:19;2.38;;;0.98;;
54157;SDS011;40065;49.894;10.358;2024-02-15T13:46:20;4.40;;;1.33;;
54157;SDS011;40065;49.894;10.358;2024-02-15T13:51:22;2.72;;;1.05;;
54157;SDS011;40065;49.894;10.358;2024-02-15T13:56:25;7.53;;;1.20;;
54157;SDS011;40065;49.894;10.358;2024-02-15T14:01:27;4.30;;;1.02;;
54157;SDS011;40065;49.894;10.358;2024-02-15T14:06:29;4.45;;;1.10;;
54157;SDS011;40065;49.894;10.358;2024-02-15T14:11:31;1.65;;;0.90;;
54157;SDS011;40065;49.894;10.358;2024-02-15T14:16:34;4.72;;;1.15;;
54157;SDS011;40065;49.894;10.358;2024-02-15T14:21:36;4.30;;;0.88;;
54157;SDS011;40065;49.894;10.358;2024-02-15T14:31:43;3.22;;;0.80;;
54157;SDS011;40065;49.894;10.358;2024-02-15T14:37:03;2.85;;;1.05;;
54157;SDS011;40065;49.894;10.358;2024-02-15T14:42:07;3.13;;;0.93;;
54157;SDS011;40065;49.894;10.358;2024-02-15T14:47:12;2.72;;;1.10;;
54157;SDS011;40065;49.894;10.358;2024-02-15T14:52:14;2.03;;;0.82;;
54157;SDS011;40065;49.894;10.358;2024-02-15T14:57:16;2.45;;;0.93;;
54157;SDS011;40065;49.894;10.358;2024-02-15T15:02:21;2.85;;;1.08;;
54157;SDS011;40065;49.894;10.358;2024-02-15T15:07:23;4.32;;;1.45;;
54157;SDS011;40065;49.894;10.358;2024-02-15T15:12:44;4.60;;;1.10;;
54157;SDS011;40065;49.894;10.358;2024-02-15T15:17:47;5.63;;;1.30;;
54157;SDS011;40065;49.894;10.358;2024-02-15T15:22:48;3.65;;;1.40;;
54157;SDS011;40065;49.894;10.358;2024-02-15T15:27:50;3.05;;;1.52;;
54157;SDS011;40065;49.894;10.358;2024-02-15T15:32:53;2.53;;;1.38;;
54157;SDS011;40065;49.894;10.358;2024-02-15T15:37:56;4.05;;;1.17;;
54157;SDS011;40065;49.894;10.358;2024-02-15T15:42:59;3.08;;;1.20;;
54157;SDS011;40065;49.894;10.358;2024-02-15T15:48:01;4.90;;;1.50;;
54157;SDS011;40065;49.894;10.358;2024-02-15T15:53:08;3.33;;;1.20;;
54157;SDS011;40065;49.894;10.358;2024-02-15T15:58:12;6.28;;;1.98;;
54157;SDS011;40065;49.894;10.358;2024-02-15T16:03:14;6.50;;;1.35;;
54157;SDS011;40065;49.894;10.358;2024-02-15T16:08:16;3.97;;;1.17;;
54157;SDS011;40065;49.894;10.358;2024-02-15T16:13:18;3.38;;;1.20;;
54157;SDS011;40065;49.894;10.358;2024-02-15T16:18:21;3.88;;;1.30;;
54157;SDS011;40065;49.894;10.358;2024-02-15T16:23:24;3.03;;;1.10;;
54157;SDS011;40065;49.894;10.358;2024-02-15T16:28:26;3.28;;;1.10;;
54157;SDS011;40065;49.894;10.358;2024-02-15T16:33:28;3.53;;;1.20;;
54157;SDS011;40065;49.894;10.358;2024-02-15T16:38:30;4.82;;;1.40;;
54157;SDS011;40065;49.894;10.358;2024-02-15T16:43:32;2.60;;;1.10;;
54157;SDS011;40065;49.894;10.358;2024-02-15T16:48:34;2.53;;;1.40;;
54157;SDS011;40065;49.894;10.358;2024-02-15T16:53:36;9.70;;;1.75;;
54157;SDS011;40065;49.894;10.358;2024-02-15T16:58:39;6.57;;;1.50;;
54157;SDS011;40065;49.894;10.358;2024-02-15T17:03:41;4.03;;;1.27;;
54157;SDS011;40065;49.894;10.358;2024-02-15T17:08:44;2.47;;;1.30;;
54157;SDS011;40065;49.894;10.358;2024-02-15T17:13:47;3.55;;;1.40;;
54157;SDS011;40065;49.894;10.358;2024-02-15T17:18:50;3.65;;;1.45;;
54157;SDS011;40065;49.894;10.358;2024-02-15T17:23:52;4.50;;;1.45;;
54157;SDS011;40065;49.894;10.358;2024-02-15T17:28:54;4.15;;;1.63;;
54157;SDS011;40065;49.894;10.358;2024-02-15T17:33:58;3.60;;;1.90;;
54157;SDS011;40065;49.894;10.358;2024-02-15T17:39:00;5.28;;;1.52;;
54157;SDS011;40065;49.894;10.358;2024-02-15T17:44:02;4.45;;;1.75;;
54157;SDS011;40065;49.894;10.358;2024-02-15T17:49:04;6.18;;;1.67;;
54157;SDS011;40065;49.894;10.358;2024-02-15T17:54:06;3.28;;;1.50;;
54157;SDS011;40065;49.894;10.358;2024-02-15T17:59:08;2.83;;;1.58;;
54157;SDS011;40065;49.894;10.358;2024-02-15T18:04:12;5.05;;;1.60;;
54157;SDS011;40065;49.894;10.358;2024-02-15T18:09:14;2.97;;;1.30;;
54157;SDS011;40065;49.894;10.358;2024-02-15T18:14:16;3.13;;;1.33;;
54157;SDS011;40065;49.894;10.358;2024-02-15T18:19:18;3.38;;;1.80;;
54157;SDS011;40065;49.894;10.358;2024-02-15T18:24:21;3.35;;;1.50;;
54157;SDS011;40065;49.894;10.358;2024-02-15T18:29:23;4.05;;;1.58;;
54157;SDS011;40065;49.894;10.358;2024-02-15T18:34:25;5.18;;;1.73;;
54157;SDS011;40065;49.894;10.358;2024-02-15T18:39:27;4.65;;;1.85;;
54157;SDS011;40065;49.894;10.358;2024-02-15T18:44:30;4.03;;;1.60;;
54157;SDS011;40065;49.894;10.358;2024-02-15T18:49:32;4.57;;;1.83;;
54157;SDS011;40065;49.894;10.358;2024-02-15T18:54:41;3.78;;;1.60;;
54157;SDS011;40065;49.894;10.358;2024-02-15T18:59:43;5.20;;;1.73;;
54157;SDS011;40065;49.894;10.358;2024-02-15T19:04:46;2.75;;;1.60;;
54157;SDS011;40065;49.894;10.358;2024-02-15T19:09:48;4.68;;;1.52;;
54157;SDS011;40065;49.894;10.358;2024-02-15T19:14:51;5.70;;;2.00;;
54157;SDS011;40065;49.894;10.358;2024-02-15T19:19:53;3.63;;;1.92;;
54157;SDS011;40065;49.894;10.358;2024-02-15T19:24:55;3.50;;;1.58;;
54157;SDS011;40065;49.894;10.358;2024-02-15T19:29:57;3.10;;;1.63;;
54157;SDS011;40065;49.894;10.358;2024-02-15T19:34:59;5.93;;;1.98;;
54157;SDS011;40065;49.894;10.358;2024-02-15T19:40:02;3.65;;;1.50;;
54157;SDS011;40065;49.894;10.358;2024-02-15T19:45:09;4.07;;;2.00;;
54157;SDS011;40065;49.894;10.358;2024-02-15T19:50:11;4.30;;;2.33;;
54157;SDS011;40065;49.894;10.358;2024-02-15T19:55:16;3.05;;;1.90;;
54157;SDS011;40065;49.894;10.358;2024-02-15T20:00:18;4.55;;;1.73;;
54157;SDS011;40065;49.894;10.358;2024-02-15T20:05:21;6.25;;;2.00;;
54157;SDS011;40065;49.894;10.358;2024-02-15T20:10:25;4.35;;;1.95;;
54157;SDS011;40065;49.894;10.358;2024-02-15T20:15:26;3.85;;;1.75;;
54157;SDS011;40065;49.894;10.358;2024-02-15T20:20:31;5.22;;;1.92;;
54157;SDS011;40065;49.894;10.358;2024-02-15T20:25:33;4.40;;;2.13;;
54157;SDS011;40065;49.894;10.358;2024-02-15T20:30:35;5.22;;;2.20;;
54157;SDS011;40065;49.894;10.358;2024-02-15T20:35:38;5.90;;;1.90;;
54157;SDS011;40065;49.894;10.358;2024-02-15T20:40:40;5.90;;;1.88;;
54157;SDS011;40065;49.894;10.358;2024-02-15T20:45:42;5.47;;;1.88;;
54157;SDS011;40065;49.894;10.358;2024-02-15T20:50:45;4.28;;;1.90;;
54157;SDS011;40065;49.894;10.358;2024-02-15T20:55:47;5.47;;;1.77;;
54157;SDS011;40065;49.894;10.358;2024-02-15T21:00:48;3.97;;;2.20;;
54157;SDS011;40065;49.894;10.358;2024-02-15T21:05:50;5.15;;;1.92;;
54157;SDS011;40065;49.894;10.358;2024-02-15T21:10:53;4.15;;;1.80;;
54157;SDS011;40065;49.894;10.358;2024-02-15T21:16:01;5.82;;;1.90;;
54157;SDS011;40065;49.894;10.358;2024-02-15T21:21:08;3.95;;;1.98;;
54157;SDS011;40065;49.894;10.358;2024-02-15T21:26:10;3.78;;;1.65;;
54157;SDS011;40065;49.894;10.358;2024-02-15T21:31:13;6.22;;;2.03;;
54157;SDS011;40065;49.894;10.358;2024-02-15T21:36:18;4.75;;;1.92;;
54157;SDS011;40065;49.894;10.358;2024-02-15T21:41:20;5.32;;;2.30;;
54157;SDS011;40065;49.894;10.358;2024-02-15T21:46:22;4.18;;;2.17;;
54157;SDS011;40065;49.894;10.358;2024-02-15T21:51:24;6.68;;;2.50;;
54157;SDS011;40065;49.894;10.358;2024-02-15T21:56:26;6.00;;;2.15;;
54157;SDS011;40065;49.894;10.358;2024-02-15T22:01:28;4.63;;;2.35;;
54157;SDS011;40065;49.894;10.358;2024-02-15T22:06:32;5.00;;;2.60;;
54157;SDS011;40065;49.894;10.358;2024-02-15T22:11:34;6.60;;;2.72;;
54157;SDS011;40065;49.894;10.358;2024-02-15T22:16:37;4.45;;;2.60;;
54157;SDS011;40065;49.894;10.358;2024-02-15T22:21:39;6.68;;;3.20;;
54157;SDS011;40065;49.894;10.358;2024-02-15T22:26:40;6.03;;;2.70;;
54157;SDS011;40065;49.894;10.358;2024-02-15T22:31:42;5.47;;;2.88;;
54157;SDS011;40065;49.894;10.358;2024-02-15T22:36:45;4.93;;;2.83;;
54157;SDS011;40065;49.894;10.358;2024-02-15T22:41:47;5.32;;;3.05;;
54157;SDS011;40065;49.894;10.358;2024-02-15T22:46:50;7.68;;;3.40;;
54157;SDS011;40065;49.894;10.358;2024-02-15T22:51:54;7.28;;;3.60;;
54157;SDS011;40065;49.894;10.358;2024-02-15T22:56:56;6.07;;;3.75;;
54157;SDS011;40065;49.894;10.358;2024-02-15T23:01:58;8.90;;;3.75;;
54157;SDS011;40065;49.894;10.358;2024-02-15T23:07:01;7.13;;;3.85;;
54157;SDS011;40065;49.894;10.358;2024-02-15T23:12:05;5.43;;;3.63;;
54157;SDS011;40065;49.894;10.358;2024-02-15T23:17:07;6.82;;;3.97;;
54157;SDS011;40065;49.894;10.358;2024-02-15T23:22:09;8.75;;;4.20;;
54157;SDS011;40065;49.894;10.358;2024-02-15T23:27:11;5.70;;;3.47;;
54157;SDS011;40065;49.894;10.358;2024-02-15T23:32:13;4.60;;;3.40;;
54157;SDS011;40065;49.894;10.358;2024-02-15T23:37:15;5.78;;;3.80;;
54157;SDS011;40065;49.894;10.358;2024-02-15T23:42:36;7.55;;;3.95;;
54157;SDS011;40065;49.894;10.358;2024-02-15T23:47:38;7.13;;;3.80;;
54157;SDS011;40065;49.894;10.358;2024-02-15T23:52:40;5.10;;;3.65;;
54157;SDS011;40065;49.894;10.358;2024-02-15T23:57:42;8.18;;;3.90;;
